Terminal Aerodrome Forecast
Issued by NWS

Home | Current Version | Previous Version | Text Only | Print | Product List | Glossary On
Versions: 1 2 3 4 5 6 7 8 9 10 11 12 13 14 15 16 17
000
FTUS43 KICT 012300
TAFHUT
TAF
KHUT 012328Z 0200/0224 17005KT P6SM FEW040 BKN070
     FM020500 VRB03KT P6SM VCTS SCT020 BKN040CB
     FM021000 02010KT P6SM VCTS SCT015 OVC025CB
     FM021600 35016G23KT P6SM VCSH OVC030=

USA.gov is the U.S. government's official web portal to all federal, state and local government web resources and services.